sensor_id;sensor_type;location;lat;lon;timestamp;temperature;humidity
15452;DHT22;7827;53.594;9.938;2023-05-10T00:01:55;15.40;99.90
15452;DHT22;7827;53.594;9.938;2023-05-10T00:04:23;15.30;99.90
15452;DHT22;7827;53.594;9.938;2023-05-10T00:06:54;15.30;99.90
15452;DHT22;7827;53.594;9.938;2023-05-10T00:09:22;15.30;99.90
15452;DHT22;7827;53.594;9.938;2023-05-10T00:11:50;15.30;99.90
15452;DHT22;7827;53.594;9.938;2023-05-10T00:14:18;15.20;99.90
15452;DHT22;7827;53.594;9.938;2023-05-10T00:16:47;15.20;99.90
15452;DHT22;7827;53.594;9.938;2023-05-10T00:19:17;15.20;99.90
15452;DHT22;7827;53.594;9.938;2023-05-10T00:21:45;15.20;99.90
15452;DHT22;7827;53.594;9.938;2023-05-10T00:24:13;15.10;99.90
15452;DHT22;7827;53.594;9.938;2023-05-10T00:26:42;15.10;99.90
15452;DHT22;7827;53.594;9.938;2023-05-10T00:29:10;15.10;1.00
15452;DHT22;7827;53.594;9.938;2023-05-10T00:31:39;15.10;99.90
15452;DHT22;7827;53.594;9.938;2023-05-10T00:34:07;15.10;99.90
15452;DHT22;7827;53.594;9.938;2023-05-10T00:36:36;15.00;1.00
15452;DHT22;7827;53.594;9.938;2023-05-10T00:39:06;15.00;1.00
15452;DHT22;7827;53.594;9.938;2023-05-10T00:41:34;15.10;1.00
15452;DHT22;7827;53.594;9.938;2023-05-10T00:44:04;15.00;1.00
15452;DHT22;7827;53.594;9.938;2023-05-10T00:46:33;15.00;1.00
15452;DHT22;7827;53.594;9.938;2023-05-10T00:49:03;14.90;1.00
15452;DHT22;7827;53.594;9.938;2023-05-10T00:51:31;14.90;1.00
15452;DHT22;7827;53.594;9.938;2023-05-10T00:54:02;14.90;1.00
15452;DHT22;7827;53.594;9.938;2023-05-10T00:56:32;14.80;1.00
15452;DHT22;7827;53.594;9.938;2023-05-10T00:59:01;14.80;1.00
15452;DHT22;7827;53.594;9.938;2023-05-10T01:01:29;14.80;1.00
15452;DHT22;7827;53.594;9.938;2023-05-10T01:03:58;14.70;1.00
15452;DHT22;7827;53.594;9.938;2023-05-10T01:06:27;14.70;1.00
15452;DHT22;7827;53.594;9.938;2023-05-10T01:08:56;14.70;1.00
15452;DHT22;7827;53.594;9.938;2023-05-10T01:11:25;14.70;1.00
15452;DHT22;7827;53.594;9.938;2023-05-10T01:13:56;14.70;1.00
15452;DHT22;7827;53.594;9.938;2023-05-10T01:16:26;14.70;1.00
15452;DHT22;7827;53.594;9.938;2023-05-10T01:18:55;14.60;1.00
15452;DHT22;7827;53.594;9.938;2023-05-10T01:21:28;14.60;1.00
15452;DHT22;7827;53.594;9.938;2023-05-10T01:30:53;14.70;1.00
15452;DHT22;7827;53.594;9.938;2023-05-10T01:33:47;14.60;1.00
15452;DHT22;7827;53.594;9.938;2023-05-10T01:36:31;14.50;1.00
15452;DHT22;7827;53.594;9.938;2023-05-10T01:39:08;14.40;1.00
15452;DHT22;7827;53.594;9.938;2023-05-10T01:41:43;14.50;1.00
15452;DHT22;7827;53.594;9.938;2023-05-10T01:44:24;14.40;1.00
15452;DHT22;7827;53.594;9.938;2023-05-10T01:47:04;14.40;1.20
15452;DHT22;7827;53.594;9.938;2023-05-10T01:49:39;14.40;1.00
15452;DHT22;7827;53.594;9.938;2023-05-10T01:52:11;14.30;85.60
15452;DHT22;7827;53.594;9.938;2023-05-10T01:54:50;14.30;99.90
15452;DHT22;7827;53.594;9.938;2023-05-10T01:57:22;14.30;95.50
15452;DHT22;7827;53.594;9.938;2023-05-10T01:59:56;14.40;99.90
15452;DHT22;7827;53.594;9.938;2023-05-10T02:02:28;14.40;99.90
15452;DHT22;7827;53.594;9.938;2023-05-10T02:05:02;14.40;74.90
15452;DHT22;7827;53.594;9.938;2023-05-10T02:07:35;14.30;33.70
15452;DHT22;7827;53.594;9.938;2023-05-10T02:10:05;14.20;99.90
15452;DHT22;7827;53.594;9.938;2023-05-10T02:12:36;14.20;99.90
15452;DHT22;7827;53.594;9.938;2023-05-10T02:15:10;14.20;99.90
15452;DHT22;7827;53.594;9.938;2023-05-10T02:17:42;14.20;99.90
15452;DHT22;7827;53.594;9.938;2023-05-10T02:20:14;14.20;99.90
15452;DHT22;7827;53.594;9.938;2023-05-10T02:22:45;14.10;99.90
15452;DHT22;7827;53.594;9.938;2023-05-10T02:25:18;14.10;99.90
15452;DHT22;7827;53.594;9.938;2023-05-10T02:27:49;14.10;99.90
15452;DHT22;7827;53.594;9.938;2023-05-10T02:30:19;14.10;99.90
15452;DHT22;7827;53.594;9.938;2023-05-10T02:32:50;14.10;99.90
15452;DHT22;7827;53.594;9.938;2023-05-10T02:35:21;14.10;99.90
15452;DHT22;7827;53.594;9.938;2023-05-10T02:37:50;14.10;99.90
15452;DHT22;7827;53.594;9.938;2023-05-10T02:40:22;14.00;99.90
15452;DHT22;7827;53.594;9.938;2023-05-10T02:42:56;14.00;99.90
15452;DHT22;7827;53.594;9.938;2023-05-10T02:45:30;13.90;99.90
15452;DHT22;7827;53.594;9.938;2023-05-10T02:48:00;13.90;99.90
15452;DHT22;7827;53.594;9.938;2023-05-10T02:50:30;13.80;99.90
15452;DHT22;7827;53.594;9.938;2023-05-10T02:53:03;13.80;99.90
15452;DHT22;7827;53.594;9.938;2023-05-10T02:55:40;13.80;99.90
15452;DHT22;7827;53.594;9.938;2023-05-10T02:58:10;13.70;99.90
15452;DHT22;7827;53.594;9.938;2023-05-10T03:00:39;13.60;99.90
15452;DHT22;7827;53.594;9.938;2023-05-10T03:03:07;13.60;1.00
15452;DHT22;7827;53.594;9.938;2023-05-10T03:05:37;13.60;1.00
15452;DHT22;7827;53.594;9.938;2023-05-10T03:08:06;13.70;99.90
15452;DHT22;7827;53.594;9.938;2023-05-10T03:10:41;13.60;1.00
15452;DHT22;7827;53.594;9.938;2023-05-10T03:13:27;13.60;1.00
15452;DHT22;7827;53.594;9.938;2023-05-10T03:16:07;13.60;1.00
15452;DHT22;7827;53.594;9.938;2023-05-10T03:18:42;13.60;1.00
15452;DHT22;7827;53.594;9.938;2023-05-10T03:21:17;13.60;1.00
15452;DHT22;7827;53.594;9.938;2023-05-10T03:23:53;13.50;1.00
15452;DHT22;7827;53.594;9.938;2023-05-10T03:26:27;13.50;1.00
15452;DHT22;7827;53.594;9.938;2023-05-10T03:29:07;13.60;1.00
15452;DHT22;7827;53.594;9.938;2023-05-10T03:31:37;13.60;1.00
15452;DHT22;7827;53.594;9.938;2023-05-10T03:34:06;13.60;1.00
15452;DHT22;7827;53.594;9.938;2023-05-10T03:36:36;13.60;99.90
15452;DHT22;7827;53.594;9.938;2023-05-10T03:39:04;13.60;1.00
15452;DHT22;7827;53.594;9.938;2023-05-10T03:41:33;13.50;1.00
15452;DHT22;7827;53.594;9.938;2023-05-10T03:44:01;13.50;1.00
15452;DHT22;7827;53.594;9.938;2023-05-10T03:46:29;13.60;1.00
15452;DHT22;7827;53.594;9.938;2023-05-10T03:48:58;13.60;1.00
15452;DHT22;7827;53.594;9.938;2023-05-10T03:51:26;13.50;1.00
15452;DHT22;7827;53.594;9.938;2023-05-10T03:53:56;13.50;1.00
15452;DHT22;7827;53.594;9.938;2023-05-10T03:56:25;13.50;1.00
15452;DHT22;7827;53.594;9.938;2023-05-10T03:58:53;13.50;1.00
15452;DHT22;7827;53.594;9.938;2023-05-10T04:01:21;13.50;1.00
15452;DHT22;7827;53.594;9.938;2023-05-10T04:03:50;13.60;1.00
15452;DHT22;7827;53.594;9.938;2023-05-10T04:06:18;13.60;1.00
15452;DHT22;7827;53.594;9.938;2023-05-10T04:08:47;13.60;1.00
15452;DHT22;7827;53.594;9.938;2023-05-10T04:11:16;13.60;1.00
15452;DHT22;7827;53.594;9.938;2023-05-10T04:13:44;13.70;1.00
15452;DHT22;7827;53.594;9.938;2023-05-10T04:16:13;13.70;1.00
15452;DHT22;7827;53.594;9.938;2023-05-10T04:18:41;13.70;99.90
15452;DHT22;7827;53.594;9.938;2023-05-10T04:21:12;13.60;1.00
15452;DHT22;7827;53.594;9.938;2023-05-10T04:23:41;13.60;1.00
15452;DHT22;7827;53.594;9.938;2023-05-10T04:26:09;13.60;1.00
15452;DHT22;7827;53.594;9.938;2023-05-10T04:28:39;13.70;1.00
15452;DHT22;7827;53.594;9.938;2023-05-10T04:31:09;13.70;1.00
15452;DHT22;7827;53.594;9.938;2023-05-10T04:33:38;13.70;1.00
15452;DHT22;7827;53.594;9.938;2023-05-10T04:36:07;13.70;1.00
15452;DHT22;7827;53.594;9.938;2023-05-10T04:38:36;13.70;1.00
15452;DHT22;7827;53.594;9.938;2023-05-10T04:41:05;13.70;1.00
15452;DHT22;7827;53.594;9.938;2023-05-10T04:43:34;13.60;1.00
15452;DHT22;7827;53.594;9.938;2023-05-10T04:46:05;13.70;1.00
15452;DHT22;7827;53.594;9.938;2023-05-10T04:48:33;13.80;99.90
15452;DHT22;7827;53.594;9.938;2023-05-10T04:51:02;13.90;99.90
15452;DHT22;7827;53.594;9.938;2023-05-10T04:53:31;14.00;99.90
15452;DHT22;7827;53.594;9.938;2023-05-10T04:56:00;14.00;99.90
15452;DHT22;7827;53.594;9.938;2023-05-10T04:58:28;14.20;99.90
15452;DHT22;7827;53.594;9.938;2023-05-10T05:00:56;14.30;99.90
15452;DHT22;7827;53.594;9.938;2023-05-10T05:03:26;14.40;99.90
15452;DHT22;7827;53.594;9.938;2023-05-10T05:05:55;14.50;99.90
15452;DHT22;7827;53.594;9.938;2023-05-10T05:08:23;14.60;99.90
15452;DHT22;7827;53.594;9.938;2023-05-10T05:10:51;14.60;99.90
15452;DHT22;7827;53.594;9.938;2023-05-10T05:13:19;14.60;99.90
15452;DHT22;7827;53.594;9.938;2023-05-10T05:15:48;14.50;99.90
15452;DHT22;7827;53.594;9.938;2023-05-10T05:18:16;14.50;99.90
15452;DHT22;7827;53.594;9.938;2023-05-10T05:20:46;14.50;99.90
15452;DHT22;7827;53.594;9.938;2023-05-10T05:23:14;14.50;99.90
15452;DHT22;7827;53.594;9.938;2023-05-10T05:25:43;14.40;99.90
15452;DHT22;7827;53.594;9.938;2023-05-10T05:28:12;14.50;99.90
15452;DHT22;7827;53.594;9.938;2023-05-10T05:30:40;14.50;99.90
15452;DHT22;7827;53.594;9.938;2023-05-10T05:33:09;14.70;99.90
15452;DHT22;7827;53.594;9.938;2023-05-10T05:35:37;14.70;99.90
15452;DHT22;7827;53.594;9.938;2023-05-10T05:38:07;14.70;99.90
15452;DHT22;7827;53.594;9.938;2023-05-10T05:40:35;14.70;99.90
15452;DHT22;7827;53.594;9.938;2023-05-10T05:43:03;14.80;99.90
15452;DHT22;7827;53.594;9.938;2023-05-10T05:45:32;14.80;14.90
15452;DHT22;7827;53.594;9.938;2023-05-10T05:48:00;14.80;47.40
15452;DHT22;7827;53.594;9.938;2023-05-10T05:50:28;14.80;99.90
15452;DHT22;7827;53.594;9.938;2023-05-10T05:52:57;14.90;99.90
15452;DHT22;7827;53.594;9.938;2023-05-10T05:55:26;14.90;99.90
15452;DHT22;7827;53.594;9.938;2023-05-10T05:57:56;14.90;99.90
15452;DHT22;7827;53.594;9.938;2023-05-10T06:00:24;15.00;99.90
15452;DHT22;7827;53.594;9.938;2023-05-10T06:02:53;15.10;1.00
15452;DHT22;7827;53.594;9.938;2023-05-10T06:05:22;15.10;83.20
15452;DHT22;7827;53.594;9.938;2023-05-10T06:07:59;15.10;98.60
15452;DHT22;7827;53.594;9.938;2023-05-10T06:10:29;15.10;17.10
15452;DHT22;7827;53.594;9.938;2023-05-10T06:12:57;15.20;28.10
15452;DHT22;7827;53.594;9.938;2023-05-10T06:15:26;15.20;36.30
15452;DHT22;7827;53.594;9.938;2023-05-10T06:17:54;15.20;99.90
15452;DHT22;7827;53.594;9.938;2023-05-10T06:20:23;15.30;23.70
15452;DHT22;7827;53.594;9.938;2023-05-10T06:22:51;15.30;68.40
15452;DHT22;7827;53.594;9.938;2023-05-10T06:25:20;15.40;99.90
15452;DHT22;7827;53.594;9.938;2023-05-10T06:27:49;15.40;99.90
15452;DHT22;7827;53.594;9.938;2023-05-10T06:30:22;15.50;26.30
15452;DHT22;7827;53.594;9.938;2023-05-10T06:32:54;15.60;20.60
15452;DHT22;7827;53.594;9.938;2023-05-10T06:35:23;15.50;12.80
15452;DHT22;7827;53.594;9.938;2023-05-10T06:37:51;15.60;99.90
15452;DHT22;7827;53.594;9.938;2023-05-10T06:40:19;15.70;90.60
15452;DHT22;7827;53.594;9.938;2023-05-10T06:42:49;15.70;10.40
15452;DHT22;7827;53.594;9.938;2023-05-10T06:45:18;15.60;6.60
15452;DHT22;7827;53.594;9.938;2023-05-10T06:47:46;15.50;61.30
15452;DHT22;7827;53.594;9.938;2023-05-10T06:50:15;15.40;99.90
15452;DHT22;7827;53.594;9.938;2023-05-10T06:52:43;15.40;99.90
15452;DHT22;7827;53.594;9.938;2023-05-10T06:55:11;15.40;99.90
15452;DHT22;7827;53.594;9.938;2023-05-10T06:57:40;15.30;99.90
15452;DHT22;7827;53.594;9.938;2023-05-10T07:00:10;15.40;99.90
15452;DHT22;7827;53.594;9.938;2023-05-10T07:02:39;15.40;99.90
15452;DHT22;7827;53.594;9.938;2023-05-10T07:05:08;15.50;99.90
15452;DHT22;7827;53.594;9.938;2023-05-10T07:07:37;15.60;99.90
15452;DHT22;7827;53.594;9.938;2023-05-10T07:10:05;15.70;99.90
15452;DHT22;7827;53.594;9.938;2023-05-10T07:12:35;15.70;99.90
15452;DHT22;7827;53.594;9.938;2023-05-10T07:15:04;15.70;99.90
15452;DHT22;7827;53.594;9.938;2023-05-10T07:17:34;15.80;99.90
15452;DHT22;7827;53.594;9.938;2023-05-10T07:20:03;16.10;99.90
15452;DHT22;7827;53.594;9.938;2023-05-10T07:22:32;16.30;87.40
15452;DHT22;7827;53.594;9.938;2023-05-10T07:25:00;16.30;1.00
15452;DHT22;7827;53.594;9.938;2023-05-10T07:27:29;16.40;61.70
15452;DHT22;7827;53.594;9.938;2023-05-10T07:29:58;16.50;91.30
15452;DHT22;7827;53.594;9.938;2023-05-10T07:32:27;16.40;58.20
15452;DHT22;7827;53.594;9.938;2023-05-10T07:34:57;16.40;99.90
15452;DHT22;7827;53.594;9.938;2023-05-10T07:37:25;16.30;81.60
15452;DHT22;7827;53.594;9.938;2023-05-10T07:39:54;16.30;99.90
15452;DHT22;7827;53.594;9.938;2023-05-10T07:42:22;16.30;99.90
15452;DHT22;7827;53.594;9.938;2023-05-10T07:44:51;16.40;99.90
15452;DHT22;7827;53.594;9.938;2023-05-10T07:47:19;16.40;46.60
15452;DHT22;7827;53.594;9.938;2023-05-10T07:49:48;16.40;93.20
15452;DHT22;7827;53.594;9.938;2023-05-10T07:52:18;16.50;57.40
15452;DHT22;7827;53.594;9.938;2023-05-10T07:54:48;16.60;99.90
15452;DHT22;7827;53.594;9.938;2023-05-10T07:57:17;16.70;99.90
15452;DHT22;7827;53.594;9.938;2023-05-10T07:59:46;16.70;1.00
15452;DHT22;7827;53.594;9.938;2023-05-10T08:02:14;16.80;16.30
15452;DHT22;7827;53.594;9.938;2023-05-10T08:04:43;16.80;1.00
15452;DHT22;7827;53.594;9.938;2023-05-10T08:07:12;16.80;1.00
15452;DHT22;7827;53.594;9.938;2023-05-10T08:09:42;16.80;1.00
15452;DHT22;7827;53.594;9.938;2023-05-10T08:12:10;16.70;1.00
15452;DHT22;7827;53.594;9.938;2023-05-10T08:14:38;16.70;83.50
15452;DHT22;7827;53.594;9.938;2023-05-10T08:17:06;16.80;5.60
15452;DHT22;7827;53.594;9.938;2023-05-10T08:19:35;16.80;99.90
15452;DHT22;7827;53.594;9.938;2023-05-10T08:22:03;16.90;1.00
15452;DHT22;7827;53.594;9.938;2023-05-10T08:24:31;17.00;13.60
15452;DHT22;7827;53.594;9.938;2023-05-10T08:27:02;17.00;10.50
15452;DHT22;7827;53.594;9.938;2023-05-10T08:29:31;17.20;99.90
15452;DHT22;7827;53.594;9.938;2023-05-10T08:32:15;17.20;99.90
15452;DHT22;7827;53.594;9.938;2023-05-10T08:34:43;17.30;98.60
15452;DHT22;7827;53.594;9.938;2023-05-10T08:37:11;17.30;99.90
15452;DHT22;7827;53.594;9.938;2023-05-10T08:39:40;17.30;92.00
15452;DHT22;7827;53.594;9.938;2023-05-10T08:42:10;17.40;99.90
15452;DHT22;7827;53.594;9.938;2023-05-10T08:44:40;17.60;1.00
15452;DHT22;7827;53.594;9.938;2023-05-10T08:47:10;17.60;1.00
15452;DHT22;7827;53.594;9.938;2023-05-10T08:49:40;17.50;1.00
15452;DHT22;7827;53.594;9.938;2023-05-10T08:52:10;17.50;1.00
15452;DHT22;7827;53.594;9.938;2023-05-10T08:54:41;17.50;92.10
15452;DHT22;7827;53.594;9.938;2023-05-10T08:57:11;17.50;1.00
15452;DHT22;7827;53.594;9.938;2023-05-10T08:59:40;17.60;1.00
15452;DHT22;7827;53.594;9.938;2023-05-10T09:02:10;17.60;86.80
15452;DHT22;7827;53.594;9.938;2023-05-10T09:04:44;17.70;1.00
15452;DHT22;7827;53.594;9.938;2023-05-10T09:07:13;17.80;1.00
15452;DHT22;7827;53.594;9.938;2023-05-10T09:09:42;17.80;1.00
15452;DHT22;7827;53.594;9.938;2023-05-10T09:12:13;17.80;1.00
15452;DHT22;7827;53.594;9.938;2023-05-10T09:14:44;17.90;1.00
15452;DHT22;7827;53.594;9.938;2023-05-10T09:17:13;17.80;2.20
15452;DHT22;7827;53.594;9.938;2023-05-10T09:19:41;17.90;1.00
15452;DHT22;7827;53.594;9.938;2023-05-10T09:22:10;17.90;58.80
15452;DHT22;7827;53.594;9.938;2023-05-10T09:24:38;17.90;92.70
15452;DHT22;7827;53.594;9.938;2023-05-10T09:27:13;17.80;99.90
15452;DHT22;7827;53.594;9.938;2023-05-10T09:29:42;17.70;99.90
15452;DHT22;7827;53.594;9.938;2023-05-10T09:32:10;17.50;99.90
15452;DHT22;7827;53.594;9.938;2023-05-10T09:34:39;17.40;1.00
15452;DHT22;7827;53.594;9.938;2023-05-10T09:37:09;17.40;1.00
15452;DHT22;7827;53.594;9.938;2023-05-10T09:39:38;17.40;1.00
15452;DHT22;7827;53.594;9.938;2023-05-10T09:42:09;17.30;1.00
15452;DHT22;7827;53.594;9.938;2023-05-10T09:44:39;17.20;1.00
15452;DHT22;7827;53.594;9.938;2023-05-10T09:47:09;17.10;96.40
15452;DHT22;7827;53.594;9.938;2023-05-10T09:49:37;17.20;99.90
15452;DHT22;7827;53.594;9.938;2023-05-10T09:52:06;17.00;99.90
15452;DHT22;7827;53.594;9.938;2023-05-10T09:54:35;16.90;1.00
15452;DHT22;7827;53.594;9.938;2023-05-10T09:57:03;16.70;1.00
15452;DHT22;7827;53.594;9.938;2023-05-10T09:59:33;16.50;99.90
15452;DHT22;7827;53.594;9.938;2023-05-10T10:02:04;16.30;1.00
15452;DHT22;7827;53.594;9.938;2023-05-10T10:04:39;16.30;1.00
15452;DHT22;7827;53.594;9.938;2023-05-10T10:07:08;16.10;99.90
15452;DHT22;7827;53.594;9.938;2023-05-10T10:09:36;16.10;99.90
15452;DHT22;7827;53.594;9.938;2023-05-10T10:12:06;16.00;99.90
15452;DHT22;7827;53.594;9.938;2023-05-10T10:14:35;15.90;1.00
15452;DHT22;7827;53.594;9.938;2023-05-10T10:17:05;15.80;99.90
15452;DHT22;7827;53.594;9.938;2023-05-10T10:19:35;15.70;1.00
15452;DHT22;7827;53.594;9.938;2023-05-10T10:22:04;15.60;1.00
15452;DHT22;7827;53.594;9.938;2023-05-10T10:24:33;15.50;1.00
15452;DHT22;7827;53.594;9.938;2023-05-10T10:27:09;15.50;99.90
15452;DHT22;7827;53.594;9.938;2023-05-10T10:29:52;15.40;1.00
15452;DHT22;7827;53.594;9.938;2023-05-10T10:32:42;15.30;1.00
15452;DHT22;7827;53.594;9.938;2023-05-10T10:35:36;15.30;99.90
15452;DHT22;7827;53.594;9.938;2023-05-10T10:38:08;15.10;71.70
15452;DHT22;7827;53.594;9.938;2023-05-10T10:40:36;15.00;1.00
15452;DHT22;7827;53.594;9.938;2023-05-10T10:43:22;15.10;85.60
15452;DHT22;7827;53.594;9.938;2023-05-10T10:46:12;15.20;1.00
15452;DHT22;7827;53.594;9.938;2023-05-10T10:48:47;15.30;1.00
15452;DHT22;7827;53.594;9.938;2023-05-10T10:51:18;15.30;32.00
15452;DHT22;7827;53.594;9.938;2023-05-10T10:53:47;15.40;1.00
15452;DHT22;7827;53.594;9.938;2023-05-10T10:56:22;15.50;1.00
15452;DHT22;7827;53.594;9.938;2023-05-10T10:58:51;15.60;99.90
15452;DHT22;7827;53.594;9.938;2023-05-10T11:01:20;15.60;16.30
15452;DHT22;7827;53.594;9.938;2023-05-10T11:04:17;15.60;99.90
15452;DHT22;7827;53.594;9.938;2023-05-10T11:06:47;15.60;1.00
15452;DHT22;7827;53.594;9.938;2023-05-10T11:09:15;15.60;1.00
15452;DHT22;7827;53.594;9.938;2023-05-10T11:11:51;15.50;99.90
15452;DHT22;7827;53.594;9.938;2023-05-10T11:14:22;15.40;1.00
15452;DHT22;7827;53.594;9.938;2023-05-10T11:16:50;15.40;99.90
15452;DHT22;7827;53.594;9.938;2023-05-10T11:19:20;15.40;94.00
15452;DHT22;7827;53.594;9.938;2023-05-10T11:21:50;15.50;99.90
15452;DHT22;7827;53.594;9.938;2023-05-10T11:24:22;15.40;99.90
15452;DHT22;7827;53.594;9.938;2023-05-10T11:26:54;15.40;1.00
15452;DHT22;7827;53.594;9.938;2023-05-10T11:29:23;15.40;1.00
15452;DHT22;7827;53.594;9.938;2023-05-10T11:31:53;15.30;99.90
15452;DHT22;7827;53.594;9.938;2023-05-10T11:34:28;15.20;1.00
15452;DHT22;7827;53.594;9.938;2023-05-10T11:36:57;15.30;99.90
15452;DHT22;7827;53.594;9.938;2023-05-10T11:39:26;15.20;1.00
15452;DHT22;7827;53.594;9.938;2023-05-10T11:41:55;15.20;1.00
15452;DHT22;7827;53.594;9.938;2023-05-10T11:44:29;15.30;1.00
15452;DHT22;7827;53.594;9.938;2023-05-10T11:46:58;15.30;99.90
15452;DHT22;7827;53.594;9.938;2023-05-10T11:49:29;15.40;99.90
15452;DHT22;7827;53.594;9.938;2023-05-10T11:52:04;15.50;1.00
15452;DHT22;7827;53.594;9.938;2023-05-10T11:54:33;15.60;1.00
15452;DHT22;7827;53.594;9.938;2023-05-10T11:57:03;15.60;1.00
15452;DHT22;7827;53.594;9.938;2023-05-10T11:59:31;15.50;1.00
15452;DHT22;7827;53.594;9.938;2023-05-10T12:02:00;15.40;99.90
15452;DHT22;7827;53.594;9.938;2023-05-10T12:04:30;15.40;1.00
15452;DHT22;7827;53.594;9.938;2023-05-10T12:06:59;15.30;1.00
15452;DHT22;7827;53.594;9.938;2023-05-10T12:09:27;15.40;1.00
15452;DHT22;7827;53.594;9.938;2023-05-10T12:12:10;15.40;99.90
15452;DHT22;7827;53.594;9.938;2023-05-10T12:14:38;15.40;1.00
15452;DHT22;7827;53.594;9.938;2023-05-10T12:17:11;15.40;1.00
15452;DHT22;7827;53.594;9.938;2023-05-10T12:19:41;15.40;99.90
15452;DHT22;7827;53.594;9.938;2023-05-10T12:22:10;15.50;1.00
15452;DHT22;7827;53.594;9.938;2023-05-10T12:24:38;15.60;85.60
15452;DHT22;7827;53.594;9.938;2023-05-10T12:27:08;15.70;1.00
15452;DHT22;7827;53.594;9.938;2023-05-10T12:29:36;15.80;99.90
15452;DHT22;7827;53.594;9.938;2023-05-10T12:32:10;15.90;1.00
15452;DHT22;7827;53.594;9.938;2023-05-10T12:34:38;16.10;1.00
15452;DHT22;7827;53.594;9.938;2023-05-10T12:37:08;16.20;99.90
15452;DHT22;7827;53.594;9.938;2023-05-10T12:39:40;16.30;1.00
15452;DHT22;7827;53.594;9.938;2023-05-10T12:42:09;16.30;1.00
15452;DHT22;7827;53.594;9.938;2023-05-10T12:44:38;16.30;1.00
15452;DHT22;7827;53.594;9.938;2023-05-10T12:47:06;16.30;1.00
15452;DHT22;7827;53.594;9.938;2023-05-10T12:49:36;16.20;1.00
15452;DHT22;7827;53.594;9.938;2023-05-10T12:52:04;16.30;99.90
15452;DHT22;7827;53.594;9.938;2023-05-10T12:54:33;16.40;99.90
15452;DHT22;7827;53.594;9.938;2023-05-10T12:57:02;16.50;99.90
15452;DHT22;7827;53.594;9.938;2023-05-10T12:59:31;16.60;1.00
15452;DHT22;7827;53.594;9.938;2023-05-10T13:02:01;16.60;1.00
15452;DHT22;7827;53.594;9.938;2023-05-10T13:04:29;16.70;70.40
15452;DHT22;7827;53.594;9.938;2023-05-10T13:06:58;16.80;99.90
15452;DHT22;7827;53.594;9.938;2023-05-10T13:09:26;16.90;99.90
15452;DHT22;7827;53.594;9.938;2023-05-10T13:11:57;17.00;30.70
15452;DHT22;7827;53.594;9.938;2023-05-10T13:14:26;17.10;1.00
15452;DHT22;7827;53.594;9.938;2023-05-10T13:16:54;17.10;1.00
15452;DHT22;7827;53.594;9.938;2023-05-10T13:19:23;17.10;1.00
15452;DHT22;7827;53.594;9.938;2023-05-10T13:21:51;17.10;99.90
15452;DHT22;7827;53.594;9.938;2023-05-10T13:24:20;17.00;99.90
15452;DHT22;7827;53.594;9.938;2023-05-10T13:26:49;17.10;1.00
15452;DHT22;7827;53.594;9.938;2023-05-10T13:29:19;17.20;99.90
15452;DHT22;7827;53.594;9.938;2023-05-10T13:31:49;17.30;99.90
15452;DHT22;7827;53.594;9.938;2023-05-10T13:34:19;17.20;1.00
15452;DHT22;7827;53.594;9.938;2023-05-10T13:36:48;17.20;1.00
15452;DHT22;7827;53.594;9.938;2023-05-10T13:39:16;17.10;1.00
15452;DHT22;7827;53.594;9.938;2023-05-10T13:41:44;17.10;99.90
15452;DHT22;7827;53.594;9.938;2023-05-10T13:44:13;17.10;99.90
15452;DHT22;7827;53.594;9.938;2023-05-10T13:46:43;17.10;1.00
15452;DHT22;7827;53.594;9.938;2023-05-10T13:49:12;17.10;1.00
15452;DHT22;7827;53.594;9.938;2023-05-10T13:51:40;17.10;1.00
15452;DHT22;7827;53.594;9.938;2023-05-10T13:54:08;17.10;1.00
15452;DHT22;7827;53.594;9.938;2023-05-10T13:56:39;17.00;99.90
15452;DHT22;7827;53.594;9.938;2023-05-10T13:59:09;16.90;99.90
15452;DHT22;7827;53.594;9.938;2023-05-10T14:01:37;16.90;99.90
15452;DHT22;7827;53.594;9.938;2023-05-10T14:04:07;17.00;1.00
15452;DHT22;7827;53.594;9.938;2023-05-10T14:06:37;17.10;1.00
15452;DHT22;7827;53.594;9.938;2023-05-10T14:09:05;17.10;99.90
15452;DHT22;7827;53.594;9.938;2023-05-10T14:11:33;17.20;99.90
15452;DHT22;7827;53.594;9.938;2023-05-10T14:14:02;17.20;99.90
15452;DHT22;7827;53.594;9.938;2023-05-10T14:16:30;17.40;99.90
15452;DHT22;7827;53.594;9.938;2023-05-10T14:18:58;17.40;99.90
15452;DHT22;7827;53.594;9.938;2023-05-10T14:21:28;17.40;17.60
15452;DHT22;7827;53.594;9.938;2023-05-10T14:23:57;17.50;18.40
15452;DHT22;7827;53.594;9.938;2023-05-10T14:26:26;17.50;21.60
15452;DHT22;7827;53.594;9.938;2023-05-10T14:28:54;17.50;1.00
15452;DHT22;7827;53.594;9.938;2023-05-10T14:31:23;17.50;1.00
15452;DHT22;7827;53.594;9.938;2023-05-10T14:33:52;17.50;1.00
15452;DHT22;7827;53.594;9.938;2023-05-10T14:36:21;17.40;1.00
15452;DHT22;7827;53.594;9.938;2023-05-10T14:38:50;17.40;14.80
15452;DHT22;7827;53.594;9.938;2023-05-10T14:41:19;17.40;7.00
15452;DHT22;7827;53.594;9.938;2023-05-10T14:43:47;17.40;99.90
15452;DHT22;7827;53.594;9.938;2023-05-10T14:46:15;17.30;1.00
15452;DHT22;7827;53.594;9.938;2023-05-10T14:48:44;17.30;1.00
15452;DHT22;7827;53.594;9.938;2023-05-10T14:51:12;17.30;1.00
15452;DHT22;7827;53.594;9.938;2023-05-10T14:53:40;17.30;1.00
15452;DHT22;7827;53.594;9.938;2023-05-10T14:56:10;17.40;1.00
15452;DHT22;7827;53.594;9.938;2023-05-10T14:58:38;17.40;1.00
15452;DHT22;7827;53.594;9.938;2023-05-10T15:01:06;17.50;1.00
15452;DHT22;7827;53.594;9.938;2023-05-10T15:03:35;17.50;99.90
15452;DHT22;7827;53.594;9.938;2023-05-10T15:06:05;17.50;1.00
15452;DHT22;7827;53.594;9.938;2023-05-10T15:08:33;17.60;1.00
15452;DHT22;7827;53.594;9.938;2023-05-10T15:11:02;17.60;1.00
15452;DHT22;7827;53.594;9.938;2023-05-10T15:13:31;17.50;97.40
15452;DHT22;7827;53.594;9.938;2023-05-10T15:16:00;17.40;99.90
15452;DHT22;7827;53.594;9.938;2023-05-10T15:18:28;17.30;1.00
15452;DHT22;7827;53.594;9.938;2023-05-10T15:20:57;17.30;1.00
15452;DHT22;7827;53.594;9.938;2023-05-10T15:23:25;17.30;99.90
15452;DHT22;7827;53.594;9.938;2023-05-10T15:25:53;17.40;24.60
15452;DHT22;7827;53.594;9.938;2023-05-10T15:28:22;17.40;99.90
15452;DHT22;7827;53.594;9.938;2023-05-10T15:30:52;17.50;1.00
15452;DHT22;7827;53.594;9.938;2023-05-10T15:33:20;17.50;18.60
15452;DHT22;7827;53.594;9.938;2023-05-10T15:35:49;17.50;1.00
15452;DHT22;7827;53.594;9.938;2023-05-10T15:38:17;17.50;99.90
15452;DHT22;7827;53.594;9.938;2023-05-10T15:40:46;17.50;99.90
15452;DHT22;7827;53.594;9.938;2023-05-10T15:43:14;17.40;1.00
15452;DHT22;7827;53.594;9.938;2023-05-10T15:45:43;17.30;1.00
15452;DHT22;7827;53.594;9.938;2023-05-10T15:48:12;17.30;99.90
15452;DHT22;7827;53.594;9.938;2023-05-10T15:50:40;17.30;99.90
15452;DHT22;7827;53.594;9.938;2023-05-10T15:53:09;17.30;99.90
15452;DHT22;7827;53.594;9.938;2023-05-10T15:55:37;17.20;95.00
15452;DHT22;7827;53.594;9.938;2023-05-10T15:58:05;17.20;99.90
15452;DHT22;7827;53.594;9.938;2023-05-10T16:00:34;17.10;99.90
15452;DHT22;7827;53.594;9.938;2023-05-10T16:03:02;17.00;1.00
15452;DHT22;7827;53.594;9.938;2023-05-10T16:05:32;16.90;99.90
15452;DHT22;7827;53.594;9.938;2023-05-10T16:08:01;16.80;99.40
15452;DHT22;7827;53.594;9.938;2023-05-10T16:10:31;16.70;99.90
15452;DHT22;7827;53.594;9.938;2023-05-10T16:13:00;16.60;99.90
15452;DHT22;7827;53.594;9.938;2023-05-10T16:15:29;16.40;1.00
15452;DHT22;7827;53.594;9.938;2023-05-10T16:17:57;16.30;1.00